createdAt,value
2019-05-11T00:00:56.525Z,14.73
2019-05-11T00:05:59.599Z,18.40
2019-05-11T00:11:02.407Z,16.40
2019-05-11T00:16:05.416Z,16.67
2019-05-11T00:21:08.147Z,16.42
2019-05-11T00:26:10.815Z,15.08
2019-05-11T00:31:13.538Z,17.32
2019-05-11T00:36:16.513Z,17.20
2019-05-11T00:41:19.167Z,14.60
2019-05-11T00:46:21.843Z,14.70
2019-05-11T00:51:24.531Z,13.45
2019-05-11T00:56:27.289Z,14.30
2019-05-11T01:01:30.285Z,14.10
2019-05-11T01:06:32.949Z,13.43
2019-05-11T01:11:35.603Z,13.85
2019-05-11T01:16:38.279Z,15.15
2019-05-11T01:21:40.941Z,14.33
2019-05-11T01:26:43.623Z,14.83
2019-05-11T01:31:46.347Z,15.68
2019-05-11T01:36:49.084Z,15.03
2019-05-11T01:41:52.074Z,16.30
2019-05-11T01:46:54.737Z,14.38
2019-05-11T01:51:57.399Z,16.37
2019-05-11T01:57:00.067Z,15.72
2019-05-11T02:02:02.720Z,16.00
2019-05-11T02:07:05.757Z,15.43
2019-05-11T02:12:08.437Z,16.52
2019-05-11T02:17:11.101Z,17.52
2019-05-11T02:22:13.769Z,20.57
2019-05-11T02:27:16.498Z,17.95
2019-05-11T02:32:19.169Z,20.40
2019-05-11T02:37:21.824Z,19.62
2019-05-11T02:42:24.556Z,21.65
2019-05-11T02:47:27.238Z,21.50
2019-05-11T02:52:30.717Z,19.10
2019-05-11T02:57:33.456Z,20.12
2019-05-11T03:02:36.173Z,18.98
2019-05-11T03:07:38.849Z,22.20
2019-05-11T03:12:41.959Z,21.10
2019-05-11T03:17:45.057Z,22.73
2019-05-11T03:22:47.795Z,23.98
2019-05-11T03:27:50.537Z,24.05
2019-05-11T03:32:53.213Z,23.35
2019-05-11T03:37:56.248Z,22.73
2019-05-11T03:42:58.987Z,21.25
2019-05-11T03:48:01.653Z,23.47
2019-05-11T03:53:04.598Z,23.00
2019-05-11T03:58:07.331Z,23.27
2019-05-11T04:03:10.103Z,24.20
2019-05-11T04:08:12.871Z,22.52
2019-05-11T04:13:15.602Z,25.37
2019-05-11T04:18:18.275Z,24.40
2019-05-11T04:23:20.996Z,25.27
2019-05-11T04:28:23.659Z,24.65
2019-05-11T04:33:26.394Z,29.75
2019-05-11T04:38:29.144Z,28.15
2019-05-11T04:43:31.872Z,26.17
2019-05-11T04:48:34.625Z,26.97
2019-05-11T04:53:37.343Z,31.15
2019-05-11T04:58:40.021Z,30.80
2019-05-11T05:03:47.554Z,28.77
2019-05-11T05:08:47.127Z,30.30
2019-05-11T05:13:53.273Z,31.73
2019-05-11T05:18:54.218Z,32.45
2019-05-11T05:23:56.925Z,34.73
2019-05-11T05:28:59.600Z,33.50
2019-05-11T05:34:02.351Z,30.60
2019-05-11T05:39:08.797Z,32.28
2019-05-11T05:44:10.210Z,30.77
2019-05-11T05:49:12.946Z,34.33
2019-05-11T05:54:15.621Z,32.95
2019-05-11T05:59:18.290Z,34.03
2019-05-11T06:04:21.013Z,36.08
2019-05-11T06:09:23.683Z,39.73
2019-05-11T06:14:26.419Z,36.40
2019-05-11T06:19:29.117Z,39.48
2019-05-11T06:24:33.484Z,35.05
2019-05-11T06:29:36.142Z,39.05
2019-05-11T06:34:38.812Z,39.33
2019-05-11T06:39:41.486Z,43.55
2019-05-11T06:44:44.437Z,38.08
2019-05-11T06:49:47.161Z,38.45
2019-05-11T06:54:49.853Z,45.45
2019-05-11T06:59:52.947Z,43.20
2019-05-11T07:04:55.687Z,41.83
2019-05-11T07:09:58.349Z,40.85
2019-05-11T07:15:01.011Z,44.88
2019-05-11T07:20:05.623Z,40.90
2019-05-11T07:25:08.504Z,40.85
2019-05-11T07:30:11.786Z,43.68
2019-05-11T07:35:14.592Z,43.70
2019-05-11T07:40:18.758Z,41.15
2019-05-11T07:45:21.728Z,41.63
2019-05-11T07:50:24.466Z,40.95
2019-05-11T07:55:28.197Z,34.85
2019-05-11T08:00:31.181Z,30.43
2019-05-11T08:05:33.935Z,28.67
2019-05-11T08:10:38.844Z,27.40
2019-05-11T08:15:40.973Z,24.60
2019-05-11T08:20:43.703Z,22.80
2019-05-11T08:25:48.552Z,22.27
2019-05-11T08:30:50.827Z,19.50
2019-05-11T08:35:53.480Z,23.87
2019-05-11T08:40:56.228Z,22.58
2019-05-11T08:45:59.543Z,21.73
2019-05-11T08:51:02.216Z,20.40
2019-05-11T08:56:04.885Z,21.37
2019-05-11T09:01:08.819Z,20.72
2019-05-11T09:06:11.689Z,18.80
2019-05-11T09:11:14.422Z,18.85
2019-05-11T09:16:18.930Z,15.63
2019-05-11T09:21:21.541Z,15.28
2019-05-11T09:26:24.278Z,13.62
2019-05-11T09:31:27.915Z,11.55
2019-05-11T09:36:30.967Z,10.65
2019-05-11T09:41:33.679Z,14.35
2019-05-11T09:46:38.353Z,13.90
2019-05-11T09:51:40.738Z,11.85
2019-05-11T09:56:43.408Z,11.78
2019-05-11T10:01:48.151Z,10.43
2019-05-11T10:06:50.468Z,10.15
2019-05-11T10:11:53.197Z,9.55
2019-05-11T10:16:57.850Z,9.08
2019-05-11T10:22:00.255Z,7.62
2019-05-11T10:27:02.997Z,7.83
2019-05-11T10:32:07.771Z,8.18
2019-05-11T10:37:10.108Z,7.92
2019-05-11T10:42:12.781Z,7.65
2019-05-11T10:47:15.447Z,8.03
2019-05-11T10:52:18.211Z,7.05
2019-05-11T10:57:20.991Z,7.12
2019-05-11T11:02:23.653Z,7.85
2019-05-11T11:07:28.626Z,7.95
2019-05-11T11:12:30.764Z,7.97
2019-05-11T11:17:33.505Z,7.08
2019-05-11T11:22:42.820Z,6.78
2019-05-11T11:27:40.561Z,7.25
2019-05-11T11:32:43.287Z,7.12
2019-05-11T11:37:47.884Z,6.20
2019-05-11T11:42:50.387Z,5.75
2019-05-11T11:47:53.400Z,6.47
2019-05-11T11:52:57.897Z,5.35
2019-05-11T11:58:00.648Z,5.10
2019-05-11T12:03:03.455Z,6.05
2019-05-11T12:08:08.118Z,5.05
2019-05-11T12:13:10.587Z,4.92
2019-05-11T12:18:13.258Z,4.78
2019-05-11T12:23:17.827Z,3.37
2019-05-11T12:28:20.325Z,3.92
2019-05-11T12:33:22.984Z,4.03
2019-05-11T12:38:27.664Z,3.90
2019-05-11T12:43:30.058Z,4.42
2019-05-11T12:48:32.714Z,3.58
2019-05-11T12:53:35.390Z,3.60
2019-05-11T12:58:39.575Z,3.60
2019-05-11T13:03:42.502Z,2.92
2019-05-11T13:08:45.289Z,2.52
2019-05-11T13:13:48.543Z,2.77
2019-05-11T13:18:51.310Z,2.90
2019-05-11T13:23:54.049Z,2.95
2019-05-11T13:28:58.395Z,2.70
2019-05-11T13:34:01.242Z,2.80
2019-05-11T13:39:05.738Z,3.15
2019-05-11T13:44:08.398Z,2.83
2019-05-11T13:49:11.130Z,3.00
2019-05-11T13:54:13.814Z,3.27
2019-05-11T13:59:18.565Z,3.45
2019-05-11T14:04:20.877Z,3.17
2019-05-11T14:09:23.615Z,3.30
2019-05-11T14:14:28.723Z,2.85
2019-05-11T14:19:32.024Z,2.50
2019-05-11T14:24:34.774Z,2.40
2019-05-11T14:29:38.593Z,2.58
2019-05-11T14:34:41.423Z,2.70
2019-05-11T14:39:44.440Z,2.67
2019-05-11T14:44:48.264Z,2.62
2019-05-11T14:49:51.056Z,2.15
2019-05-11T14:54:53.722Z,2.62
2019-05-11T14:59:58.468Z,2.90
2019-05-11T15:05:00.773Z,3.47
2019-05-11T15:10:07.890Z,3.20
2019-05-11T15:15:11.057Z,3.15
2019-05-11T15:20:14.599Z,3.55
2019-05-11T15:25:19.311Z,3.35
2019-05-11T15:30:22.669Z,3.62
2019-05-11T15:35:25.335Z,3.60
2019-05-11T15:40:28.126Z,3.50
2019-05-11T15:45:31.095Z,3.85
2019-05-11T15:50:33.832Z,3.85
2019-05-11T15:55:39.370Z,3.25
2019-05-11T16:00:41.016Z,3.83
2019-05-11T16:05:44.213Z,3.52
2019-05-11T16:10:48.920Z,3.52
2019-05-11T16:15:51.335Z,3.17
2019-05-11T16:20:53.995Z,3.42
2019-05-11T16:25:58.066Z,3.27
2019-05-11T16:31:01.019Z,3.45
2019-05-11T16:36:03.742Z,3.20
2019-05-11T16:41:08.915Z,3.80
2019-05-11T16:46:10.846Z,3.50
2019-05-11T16:51:13.505Z,3.67
2019-05-11T16:56:16.155Z,3.55
2019-05-11T17:01:18.989Z,3.17
2019-05-11T17:06:21.852Z,3.58
2019-05-11T17:11:24.514Z,4.20
2019-05-11T17:16:28.509Z,3.67
2019-05-11T17:21:31.829Z,4.10
2019-05-11T17:26:34.482Z,3.98
2019-05-11T17:31:38.002Z,3.90
2019-05-11T17:36:40.844Z,3.60
2019-05-11T17:41:43.603Z,3.83
2019-05-11T17:46:46.644Z,2.98
2019-05-11T17:51:52.043Z,3.37
2019-05-11T17:56:53.756Z,3.42
2019-05-11T18:01:58.052Z,3.45
2019-05-11T18:07:00.900Z,3.40
2019-05-11T18:12:03.621Z,3.30
2019-05-11T18:17:06.369Z,3.17
2019-05-11T18:22:09.422Z,3.35
2019-05-11T18:27:12.091Z,3.62
2019-05-11T18:32:15.123Z,3.22
2019-05-11T18:37:18.689Z,3.10
2019-05-11T18:42:22.231Z,3.58
2019-05-11T18:47:24.887Z,3.30
2019-05-11T18:52:27.572Z,3.10
2019-05-11T18:57:30.250Z,3.10
2019-05-11T19:02:32.970Z,3.22
2019-05-11T19:07:35.698Z,3.30
2019-05-11T19:12:38.434Z,2.98
2019-05-11T19:17:42.522Z,3.02
2019-05-11T19:22:45.305Z,3.37
2019-05-11T19:27:50.590Z,3.70
2019-05-11T19:32:52.436Z,3.20
2019-05-11T19:37:55.090Z,3.10
2019-05-11T19:42:59.112Z,3.58
2019-05-11T19:48:02.454Z,3.17
2019-05-11T19:53:05.201Z,3.25
2019-05-11T19:58:07.954Z,3.05
2019-05-11T20:03:10.688Z,2.95
2019-05-11T20:08:13.442Z,3.40
2019-05-11T20:13:17.960Z,3.10
2019-05-11T20:18:20.746Z,3.20
2019-05-11T20:23:23.421Z,2.85
2019-05-11T20:28:28.308Z,3.00
2019-05-11T20:33:30.867Z,3.10
2019-05-11T20:38:33.605Z,3.15
2019-05-11T20:43:36.411Z,2.87
2019-05-11T20:48:39.139Z,3.12
2019-05-11T20:53:41.839Z,3.00
2019-05-11T20:58:44.502Z,3.50
2019-05-11T21:03:48.641Z,3.35
2019-05-11T21:08:51.448Z,3.37
2019-05-11T21:13:54.115Z,3.25
2019-05-11T21:18:58.046Z,3.45
2019-05-11T21:24:00.827Z,3.60
2019-05-11T21:29:03.557Z,3.80
2019-05-11T21:34:08.213Z,3.00
2019-05-11T21:39:10.681Z,3.05
2019-05-11T21:44:13.435Z,3.50
2019-05-11T21:49:18.277Z,3.70
2019-05-11T21:54:20.483Z,4.20
2019-05-11T21:59:23.265Z,4.20
2019-05-11T22:04:28.237Z,4.10
2019-05-11T22:09:30.398Z,3.33
2019-05-11T22:14:33.122Z,3.77
2019-05-11T22:19:35.845Z,4.22
2019-05-11T22:24:38.850Z,3.80
2019-05-11T22:29:41.513Z,3.50
2019-05-11T22:34:44.247Z,4.05
2019-05-11T22:39:49.054Z,4.25
2019-05-11T22:44:51.283Z,4.05
2019-05-11T22:49:54.277Z,3.83
2019-05-11T22:54:58.913Z,3.87
2019-05-11T23:00:01.812Z,4.15
2019-05-11T23:05:08.440Z,4.28
2019-05-11T23:10:11.833Z,4.50
2019-05-11T23:15:14.699Z,4.33
2019-05-11T23:20:19.060Z,4.35
2019-05-11T23:25:21.737Z,3.52
2019-05-11T23:30:24.463Z,3.75
2019-05-11T23:35:28.527Z,3.65
2019-05-11T23:40:31.785Z,3.92
2019-05-11T23:45:34.445Z,4.10
2019-05-11T23:50:38.605Z,4.20
2019-05-11T23:55:41.511Z,4.42
